Lynncamp, West Virginia
Current Conditions -  °F | °C
As of 2:53 AM on Friday 19 Dec 2014 (Local Time) from KPKB Reporting Station
Overcast Overcast  
Wind Chill: 28°   Ceiling: 2100
Heat Index: 28°   Visibility: 9mi
Dew Point: 21°   Wind: 3mph
Humidity: 75%   Direction: 290°WNW
Pressure: 30.24"   Gusts: NA
Location:  38.9676°N, 81.429°W
Report Text: KPKB 190753Z AUTO 29003KT 9SM OVC021 M02/M06 A3024 RMK AO2 SLP248 T10221061
Loading
Personal Weather Stations






























Interactive Weather Map New forecast layout! Learn more

10-Day Weather Forecast

Advertisements
Track Severe Weather on mobile